Springfield, Canada
Current Conditions -  °F | °C
As of 3:00 PM on Saturday 25 Oct 2014 (Local Time) from CYZX Reporting Station
Drizzle Drizzle  
Wind Chill: 46°   Ceiling: 1100
Heat Index: 48°   Visibility: 6mi
Dew Point: 46°   Wind: 5mph
Humidity: 93%   Direction: 310°NW
Pressure: 29.52"   Gusts: NA
Location:  44.63°N, 64.85°W
Report Text: CYZX 251800Z 31004KT 6SM -DZ BR OVC011 09/08 A2952 RMK SC8 WNDY HILL UNAVBL VIS VRB 4-8 CIG RAG -DZ INTMT SLP996
Loading
Personal Weather Stations






























Interactive Weather Map
Tropical Storm Tracking
New forecast layout! Learn more

10-Day Weather Forecast

Advertisements
Track Severe Weather on mobile